sensor_id;sensor_type;location;lat;lon;timestamp;temperature;humidity
43665;DHT22;29263;48.172;11.484;2022-07-24T00:00:54;20.30;99.90
43665;DHT22;29263;48.172;11.484;2022-07-24T00:03:20;20.20;99.90
43665;DHT22;29263;48.172;11.484;2022-07-24T00:05:46;20.10;99.90
43665;DHT22;29263;48.172;11.484;2022-07-24T00:08:12;20.10;99.90
43665;DHT22;29263;48.172;11.484;2022-07-24T00:10:38;20.10;99.90
43665;DHT22;29263;48.172;11.484;2022-07-24T00:13:23;20.00;99.90
43665;DHT22;29263;48.172;11.484;2022-07-24T00:15:49;20.00;99.90
43665;DHT22;29263;48.172;11.484;2022-07-24T00:18:15;19.90;99.90
43665;DHT22;29263;48.172;11.484;2022-07-24T00:20:40;20.00;99.90
43665;DHT22;29263;48.172;11.484;2022-07-24T00:23:06;19.90;99.90
43665;DHT22;29263;48.172;11.484;2022-07-24T00:25:32;19.80;99.90
43665;DHT22;29263;48.172;11.484;2022-07-24T00:27:57;19.80;99.90
43665;DHT22;29263;48.172;11.484;2022-07-24T00:30:23;19.80;99.90
43665;DHT22;29263;48.172;11.484;2022-07-24T00:32:49;19.80;99.90
43665;DHT22;29263;48.172;11.484;2022-07-24T00:35:15;19.80;99.90
43665;DHT22;29263;48.172;11.484;2022-07-24T00:37:40;19.80;99.90
43665;DHT22;29263;48.172;11.484;2022-07-24T00:40:06;19.70;99.90
43665;DHT22;29263;48.172;11.484;2022-07-24T00:42:32;19.80;99.90
43665;DHT22;29263;48.172;11.484;2022-07-24T00:44:58;19.80;99.90
43665;DHT22;29263;48.172;11.484;2022-07-24T00:47:24;19.80;99.90
43665;DHT22;29263;48.172;11.484;2022-07-24T00:49:50;19.80;99.90
43665;DHT22;29263;48.172;11.484;2022-07-24T00:52:16;19.80;99.90
43665;DHT22;29263;48.172;11.484;2022-07-24T00:54:42;19.80;99.90
43665;DHT22;29263;48.172;11.484;2022-07-24T00:57:09;19.80;99.90
43665;DHT22;29263;48.172;11.484;2022-07-24T00:59:35;19.80;99.90
43665;DHT22;29263;48.172;11.484;2022-07-24T01:02:03;19.80;99.90
43665;DHT22;29263;48.172;11.484;2022-07-24T01:04:28;19.80;99.90
43665;DHT22;29263;48.172;11.484;2022-07-24T01:06:54;19.80;99.90
43665;DHT22;29263;48.172;11.484;2022-07-24T01:09:21;19.80;99.90
43665;DHT22;29263;48.172;11.484;2022-07-24T01:11:50;19.80;99.90
43665;DHT22;29263;48.172;11.484;2022-07-24T01:14:18;19.70;99.90
43665;DHT22;29263;48.172;11.484;2022-07-24T01:16:44;19.70;99.90
43665;DHT22;29263;48.172;11.484;2022-07-24T01:19:09;19.80;99.90
43665;DHT22;29263;48.172;11.484;2022-07-24T01:21:35;19.80;99.90
43665;DHT22;29263;48.172;11.484;2022-07-24T01:24:01;19.80;99.90
43665;DHT22;29263;48.172;11.484;2022-07-24T01:26:28;19.80;99.90
43665;DHT22;29263;48.172;11.484;2022-07-24T01:28:54;19.80;99.90
43665;DHT22;29263;48.172;11.484;2022-07-24T01:31:21;19.80;99.90
43665;DHT22;29263;48.172;11.484;2022-07-24T01:33:47;19.90;99.90
43665;DHT22;29263;48.172;11.484;2022-07-24T01:36:19;19.80;99.90
43665;DHT22;29263;48.172;11.484;2022-07-24T01:38:45;19.80;99.90
43665;DHT22;29263;48.172;11.484;2022-07-24T01:41:12;19.80;99.90
43665;DHT22;29263;48.172;11.484;2022-07-24T01:43:38;19.80;99.90
43665;DHT22;29263;48.172;11.484;2022-07-24T01:46:04;19.70;99.90
43665;DHT22;29263;48.172;11.484;2022-07-24T01:48:30;19.70;99.90
43665;DHT22;29263;48.172;11.484;2022-07-24T01:50:58;19.70;99.90
43665;DHT22;29263;48.172;11.484;2022-07-24T01:53:23;19.60;99.90
43665;DHT22;29263;48.172;11.484;2022-07-24T01:55:50;19.60;99.90
43665;DHT22;29263;48.172;11.484;2022-07-24T01:58:16;19.60;99.90
43665;DHT22;29263;48.172;11.484;2022-07-24T02:00:42;19.60;99.90
43665;DHT22;29263;48.172;11.484;2022-07-24T02:03:08;19.70;99.90
43665;DHT22;29263;48.172;11.484;2022-07-24T02:05:33;19.60;99.90
43665;DHT22;29263;48.172;11.484;2022-07-24T02:07:59;19.60;99.90
43665;DHT22;29263;48.172;11.484;2022-07-24T02:10:26;19.50;99.90
43665;DHT22;29263;48.172;11.484;2022-07-24T02:12:53;19.50;99.90
43665;DHT22;29263;48.172;11.484;2022-07-24T02:15:21;19.50;99.90
43665;DHT22;29263;48.172;11.484;2022-07-24T02:17:54;19.50;99.90
43665;DHT22;29263;48.172;11.484;2022-07-24T02:20:20;19.50;99.90
43665;DHT22;29263;48.172;11.484;2022-07-24T02:22:46;19.40;99.90
43665;DHT22;29263;48.172;11.484;2022-07-24T02:25:12;19.40;99.90
43665;DHT22;29263;48.172;11.484;2022-07-24T02:27:40;19.30;99.90
43665;DHT22;29263;48.172;11.484;2022-07-24T02:30:09;19.30;99.90
43665;DHT22;29263;48.172;11.484;2022-07-24T02:32:35;19.20;99.90
43665;DHT22;29263;48.172;11.484;2022-07-24T02:35:01;19.20;99.90
43665;DHT22;29263;48.172;11.484;2022-07-24T02:37:27;19.20;99.90
43665;DHT22;29263;48.172;11.484;2022-07-24T02:39:54;19.10;99.90
43665;DHT22;29263;48.172;11.484;2022-07-24T02:42:20;19.10;99.90
43665;DHT22;29263;48.172;11.484;2022-07-24T02:44:46;19.00;99.90
43665;DHT22;29263;48.172;11.484;2022-07-24T02:47:12;19.00;99.90
43665;DHT22;29263;48.172;11.484;2022-07-24T02:49:37;18.90;99.90
43665;DHT22;29263;48.172;11.484;2022-07-24T02:52:03;18.90;99.90
43665;DHT22;29263;48.172;11.484;2022-07-24T02:54:31;18.80;99.90
43665;DHT22;29263;48.172;11.484;2022-07-24T02:56:56;18.70;99.90
43665;DHT22;29263;48.172;11.484;2022-07-24T02:59:22;18.70;99.90
43665;DHT22;29263;48.172;11.484;2022-07-24T03:01:48;18.60;99.90
43665;DHT22;29263;48.172;11.484;2022-07-24T03:04:13;18.60;99.90
43665;DHT22;29263;48.172;11.484;2022-07-24T03:06:39;18.50;99.90
43665;DHT22;29263;48.172;11.484;2022-07-24T03:09:05;18.60;99.90
43665;DHT22;29263;48.172;11.484;2022-07-24T03:11:32;18.50;99.90
43665;DHT22;29263;48.172;11.484;2022-07-24T03:13:58;18.50;99.90
43665;DHT22;29263;48.172;11.484;2022-07-24T03:16:24;18.50;99.90
43665;DHT22;29263;48.172;11.484;2022-07-24T03:18:49;18.40;99.90
43665;DHT22;29263;48.172;11.484;2022-07-24T03:21:16;18.40;99.90
43665;DHT22;29263;48.172;11.484;2022-07-24T03:23:43;18.30;99.90
43665;DHT22;29263;48.172;11.484;2022-07-24T03:26:09;18.30;99.90
43665;DHT22;29263;48.172;11.484;2022-07-24T03:28:36;18.30;99.90
43665;DHT22;29263;48.172;11.484;2022-07-24T03:31:02;18.20;99.90
43665;DHT22;29263;48.172;11.484;2022-07-24T03:33:29;18.20;99.90
43665;DHT22;29263;48.172;11.484;2022-07-24T03:35:55;18.20;99.90
43665;DHT22;29263;48.172;11.484;2022-07-24T03:38:21;18.10;99.90
43665;DHT22;29263;48.172;11.484;2022-07-24T03:40:47;18.10;99.90
43665;DHT22;29263;48.172;11.484;2022-07-24T03:43:13;18.10;99.90
43665;DHT22;29263;48.172;11.484;2022-07-24T03:45:38;18.00;99.90
43665;DHT22;29263;48.172;11.484;2022-07-24T03:48:05;18.00;99.90
43665;DHT22;29263;48.172;11.484;2022-07-24T03:50:31;17.90;99.90
43665;DHT22;29263;48.172;11.484;2022-07-24T03:52:56;17.90;99.90
43665;DHT22;29263;48.172;11.484;2022-07-24T03:55:22;17.90;99.90
43665;DHT22;29263;48.172;11.484;2022-07-24T03:57:48;17.90;99.90
43665;DHT22;29263;48.172;11.484;2022-07-24T04:00:15;17.90;99.90
43665;DHT22;29263;48.172;11.484;2022-07-24T04:02:41;17.80;99.90
43665;DHT22;29263;48.172;11.484;2022-07-24T04:05:08;17.80;99.90
43665;DHT22;29263;48.172;11.484;2022-07-24T04:07:38;17.80;99.90
43665;DHT22;29263;48.172;11.484;2022-07-24T04:10:05;17.80;99.90
43665;DHT22;29263;48.172;11.484;2022-07-24T04:12:34;17.80;99.90
43665;DHT22;29263;48.172;11.484;2022-07-24T04:15:01;17.80;99.90
43665;DHT22;29263;48.172;11.484;2022-07-24T04:17:27;17.80;99.90
43665;DHT22;29263;48.172;11.484;2022-07-24T04:19:53;17.80;99.90
43665;DHT22;29263;48.172;11.484;2022-07-24T04:22:18;17.80;99.90
43665;DHT22;29263;48.172;11.484;2022-07-24T04:24:44;17.80;99.90
43665;DHT22;29263;48.172;11.484;2022-07-24T04:30:31;17.80;99.90
43665;DHT22;29263;48.172;11.484;2022-07-24T04:32:57;17.80;99.90
43665;DHT22;29263;48.172;11.484;2022-07-24T04:35:23;17.80;99.90
43665;DHT22;29263;48.172;11.484;2022-07-24T04:41:10;18.00;99.90
43665;DHT22;29263;48.172;11.484;2022-07-24T04:47:03;18.10;99.90
43665;DHT22;29263;48.172;11.484;2022-07-24T04:52:50;18.00;99.90
43665;DHT22;29263;48.172;11.484;2022-07-24T04:55:15;18.10;99.90
43665;DHT22;29263;48.172;11.484;2022-07-24T04:57:42;18.10;99.90
43665;DHT22;29263;48.172;11.484;2022-07-24T05:00:11;18.20;99.90
43665;DHT22;29263;48.172;11.484;2022-07-24T05:02:37;18.20;99.90
43665;DHT22;29263;48.172;11.484;2022-07-24T05:05:03;18.20;99.90
43665;DHT22;29263;48.172;11.484;2022-07-24T05:07:29;18.30;99.90
43665;DHT22;29263;48.172;11.484;2022-07-24T05:09:56;18.40;99.90
43665;DHT22;29263;48.172;11.484;2022-07-24T05:12:21;18.40;99.90
43665;DHT22;29263;48.172;11.484;2022-07-24T05:14:47;18.50;99.90
43665;DHT22;29263;48.172;11.484;2022-07-24T05:17:12;18.60;99.90
43665;DHT22;29263;48.172;11.484;2022-07-24T05:19:38;18.60;99.90
43665;DHT22;29263;48.172;11.484;2022-07-24T07:10:49;23.10;99.90
43665;DHT22;29263;48.172;11.484;2022-07-24T07:13:15;23.30;99.90
43665;DHT22;29263;48.172;11.484;2022-07-24T07:15:41;23.50;99.90
43665;DHT22;29263;48.172;11.484;2022-07-24T07:18:07;23.70;99.90
43665;DHT22;29263;48.172;11.484;2022-07-24T07:20:32;23.70;99.90
43665;DHT22;29263;48.172;11.484;2022-07-24T07:22:58;23.70;99.90
43665;DHT22;29263;48.172;11.484;2022-07-24T07:25:24;23.90;99.90
43665;DHT22;29263;48.172;11.484;2022-07-24T07:27:50;24.10;99.90
43665;DHT22;29263;48.172;11.484;2022-07-24T07:30:15;24.10;99.90
43665;DHT22;29263;48.172;11.484;2022-07-24T07:32:41;24.30;99.90
43665;DHT22;29263;48.172;11.484;2022-07-24T07:35:07;24.50;99.90
43665;DHT22;29263;48.172;11.484;2022-07-24T07:37:33;24.70;99.90
43665;DHT22;29263;48.172;11.484;2022-07-24T07:39:59;24.80;99.60
43665;DHT22;29263;48.172;11.484;2022-07-24T07:42:26;25.00;96.50
43665;DHT22;29263;48.172;11.484;2022-07-24T07:51:34;25.00;95.70
43665;DHT22;29263;48.172;11.484;2022-07-24T07:54:00;25.20;95.10
43665;DHT22;29263;48.172;11.484;2022-07-24T07:56:26;25.20;92.60
43665;DHT22;29263;48.172;11.484;2022-07-24T08:38:14;26.30;77.60
43665;DHT22;29263;48.172;11.484;2022-07-24T08:40:40;26.50;81.10
43665;DHT22;29263;48.172;11.484;2022-07-24T08:43:08;26.50;78.50
43665;DHT22;29263;48.172;11.484;2022-07-24T08:45:39;26.60;76.50
43665;DHT22;29263;48.172;11.484;2022-07-24T08:48:07;26.70;80.00
43665;DHT22;29263;48.172;11.484;2022-07-24T08:50:38;26.90;71.80
43665;DHT22;29263;48.172;11.484;2022-07-24T08:53:05;27.00;74.10
43665;DHT22;29263;48.172;11.484;2022-07-24T08:55:31;27.10;74.80
43665;DHT22;29263;48.172;11.484;2022-07-24T08:58:00;27.10;73.50
43665;DHT22;29263;48.172;11.484;2022-07-24T09:00:27;27.00;70.90
43665;DHT22;29263;48.172;11.484;2022-07-24T09:02:54;27.00;72.70
43665;DHT22;29263;48.172;11.484;2022-07-24T09:05:20;27.10;69.20
43665;DHT22;29263;48.172;11.484;2022-07-24T09:07:46;27.00;69.30
43665;DHT22;29263;48.172;11.484;2022-07-24T09:10:15;27.10;69.30
43665;DHT22;29263;48.172;11.484;2022-07-24T09:12:42;27.20;68.80
43665;DHT22;29263;48.172;11.484;2022-07-24T09:15:18;26.90;69.10
43665;DHT22;29263;48.172;11.484;2022-07-24T09:17:56;26.50;69.80
43665;DHT22;29263;48.172;11.484;2022-07-24T09:20:27;26.40;72.50
43665;DHT22;29263;48.172;11.484;2022-07-24T09:22:56;26.70;69.10
43665;DHT22;29263;48.172;11.484;2022-07-24T09:25:27;27.10;68.80
43665;DHT22;29263;48.172;11.484;2022-07-24T09:28:01;27.10;65.30
43665;DHT22;29263;48.172;11.484;2022-07-24T09:33:21;26.60;68.20
43665;DHT22;29263;48.172;11.484;2022-07-24T09:35:52;26.70;70.80
43665;DHT22;29263;48.172;11.484;2022-07-24T09:38:20;27.00;67.50
43665;DHT22;29263;48.172;11.484;2022-07-24T09:40:49;27.20;66.20
43665;DHT22;29263;48.172;11.484;2022-07-24T09:45:56;27.60;67.00
43665;DHT22;29263;48.172;11.484;2022-07-24T09:48:24;27.90;65.40
43665;DHT22;29263;48.172;11.484;2022-07-24T09:50:52;28.10;61.30
43665;DHT22;29263;48.172;11.484;2022-07-24T09:53:39;28.20;63.50
43665;DHT22;29263;48.172;11.484;2022-07-24T09:56:07;28.20;62.20
43665;DHT22;29263;48.172;11.484;2022-07-24T09:58:40;28.60;63.60
43665;DHT22;29263;48.172;11.484;2022-07-24T10:01:08;28.80;59.60
43665;DHT22;29263;48.172;11.484;2022-07-24T10:03:53;28.70;58.70
43665;DHT22;29263;48.172;11.484;2022-07-24T10:06:22;28.40;60.60
43665;DHT22;29263;48.172;11.484;2022-07-24T10:08:52;28.50;63.10
43665;DHT22;29263;48.172;11.484;2022-07-24T10:11:18;28.50;63.00
43665;DHT22;29263;48.172;11.484;2022-07-24T10:13:44;28.70;59.00
43665;DHT22;29263;48.172;11.484;2022-07-24T10:16:31;28.60;60.80
43665;DHT22;29263;48.172;11.484;2022-07-24T10:19:02;28.90;60.30
43665;DHT22;29263;48.172;11.484;2022-07-24T10:21:31;28.80;59.20
43665;DHT22;29263;48.172;11.484;2022-07-24T10:26:36;28.90;60.30
43665;DHT22;29263;48.172;11.484;2022-07-24T10:32:09;28.80;58.90
43665;DHT22;29263;48.172;11.484;2022-07-24T10:48:38;29.20;57.90
43665;DHT22;29263;48.172;11.484;2022-07-24T10:51:30;31.70;54.90
43665;DHT22;29263;48.172;11.484;2022-07-24T10:53:55;32.70;49.50
43665;DHT22;29263;48.172;11.484;2022-07-24T10:59:08;32.40;51.50
43665;DHT22;29263;48.172;11.484;2022-07-24T11:01:48;34.50;47.00
43665;DHT22;29263;48.172;11.484;2022-07-24T11:09:15;36.20;42.80
43665;DHT22;29263;48.172;11.484;2022-07-24T11:12:03;36.40;40.80
43665;DHT22;29263;48.172;11.484;2022-07-24T11:20:14;37.00;37.80
43665;DHT22;29263;48.172;11.484;2022-07-24T11:22:52;37.20;39.10
43665;DHT22;29263;48.172;11.484;2022-07-24T11:25:22;37.40;38.10
43665;DHT22;29263;48.172;11.484;2022-07-24T11:27:54;38.30;37.50
43665;DHT22;29263;48.172;11.484;2022-07-24T11:30:27;38.10;36.80
43665;DHT22;29263;48.172;11.484;2022-07-24T11:32:54;37.50;37.10
43665;DHT22;29263;48.172;11.484;2022-07-24T11:35:33;35.10;40.80
43665;DHT22;29263;48.172;11.484;2022-07-24T11:38:01;33.20;43.10
43665;DHT22;29263;48.172;11.484;2022-07-24T11:40:27;32.30;45.30
43665;DHT22;29263;48.172;11.484;2022-07-24T11:42:57;32.50;45.60
43665;DHT22;29263;48.172;11.484;2022-07-24T11:45:24;33.00;45.60
43665;DHT22;29263;48.172;11.484;2022-07-24T11:47:50;34.30;43.90
43665;DHT22;29263;48.172;11.484;2022-07-24T11:50:20;36.00;42.00
43665;DHT22;29263;48.172;11.484;2022-07-24T11:52:45;36.70;40.00
43665;DHT22;29263;48.172;11.484;2022-07-24T11:55:16;36.80;38.00
43665;DHT22;29263;48.172;11.484;2022-07-24T11:57:44;36.60;39.80
43665;DHT22;29263;48.172;11.484;2022-07-24T12:00:15;35.30;40.50
43665;DHT22;29263;48.172;11.484;2022-07-24T12:02:49;33.80;43.80
43665;DHT22;29263;48.172;11.484;2022-07-24T12:05:27;32.20;44.80
43665;DHT22;29263;48.172;11.484;2022-07-24T12:07:55;31.10;46.70
43665;DHT22;29263;48.172;11.484;2022-07-24T12:10:22;30.10;48.90
43665;DHT22;29263;48.172;11.484;2022-07-24T12:12:50;29.50;49.40
43665;DHT22;29263;48.172;11.484;2022-07-24T12:15:16;29.30;50.00
43665;DHT22;29263;48.172;11.484;2022-07-24T12:20:37;30.90;46.90
43665;DHT22;29263;48.172;11.484;2022-07-24T12:23:13;33.50;44.10
43665;DHT22;29263;48.172;11.484;2022-07-24T12:25:39;34.60;43.80
43665;DHT22;29263;48.172;11.484;2022-07-24T12:28:08;36.10;43.40
43665;DHT22;29263;48.172;11.484;2022-07-24T12:30:53;36.60;38.20
43665;DHT22;29263;48.172;11.484;2022-07-24T12:33:39;36.60;37.50
43665;DHT22;29263;48.172;11.484;2022-07-24T12:36:11;36.00;39.10
43665;DHT22;29263;48.172;11.484;2022-07-24T12:38:55;35.90;39.40
43665;DHT22;29263;48.172;11.484;2022-07-24T12:41:23;36.50;39.40
43665;DHT22;29263;48.172;11.484;2022-07-24T12:43:54;35.50;38.50
43665;DHT22;29263;48.172;11.484;2022-07-24T12:46:28;33.80;40.50
43665;DHT22;29263;48.172;11.484;2022-07-24T12:49:10;32.70;43.00
43665;DHT22;29263;48.172;11.484;2022-07-24T12:51:58;33.30;43.10
43665;DHT22;29263;48.172;11.484;2022-07-24T12:54:35;34.40;41.80
43665;DHT22;29263;48.172;11.484;2022-07-24T12:57:08;34.20;41.00
43665;DHT22;29263;48.172;11.484;2022-07-24T12:59:36;34.20;42.20
43665;DHT22;29263;48.172;11.484;2022-07-24T13:02:22;33.60;41.50
43665;DHT22;29263;48.172;11.484;2022-07-24T13:04:52;32.70;44.20
43665;DHT22;29263;48.172;11.484;2022-07-24T13:07:22;32.00;43.90
43665;DHT22;29263;48.172;11.484;2022-07-24T13:09:48;31.10;45.10
43665;DHT22;29263;48.172;11.484;2022-07-24T13:12:14;30.50;48.20
43665;DHT22;29263;48.172;11.484;2022-07-24T13:14:40;30.40;49.70
43665;DHT22;29263;48.172;11.484;2022-07-24T13:17:14;30.40;45.90
43665;DHT22;29263;48.172;11.484;2022-07-24T13:19:42;30.10;46.70
43665;DHT22;29263;48.172;11.484;2022-07-24T13:22:09;30.20;48.50
43665;DHT22;29263;48.172;11.484;2022-07-24T13:24:35;30.40;46.70
43665;DHT22;29263;48.172;11.484;2022-07-24T13:27:05;30.30;48.40
43665;DHT22;29263;48.172;11.484;2022-07-24T13:29:31;30.40;48.50
43665;DHT22;29263;48.172;11.484;2022-07-24T13:32:00;30.50;46.40
43665;DHT22;29263;48.172;11.484;2022-07-24T13:34:25;30.50;46.10
43665;DHT22;29263;48.172;11.484;2022-07-24T13:36:52;30.20;45.50
43665;DHT22;29263;48.172;11.484;2022-07-24T13:39:18;30.00;46.70
43665;DHT22;29263;48.172;11.484;2022-07-24T13:41:44;29.80;48.50
43665;DHT22;29263;48.172;11.484;2022-07-24T13:44:09;29.80;47.60
43665;DHT22;29263;48.172;11.484;2022-07-24T13:46:35;29.80;47.50
43665;DHT22;29263;48.172;11.484;2022-07-24T13:49:03;29.70;48.30
43665;DHT22;29263;48.172;11.484;2022-07-24T13:51:30;29.50;50.50
43665;DHT22;29263;48.172;11.484;2022-07-24T13:53:55;29.60;50.80
43665;DHT22;29263;48.172;11.484;2022-07-24T13:56:21;29.70;48.80
43665;DHT22;29263;48.172;11.484;2022-07-24T13:58:48;30.00;48.90
43665;DHT22;29263;48.172;11.484;2022-07-24T14:01:14;30.10;46.90
43665;DHT22;29263;48.172;11.484;2022-07-24T14:03:42;30.00;46.00
43665;DHT22;29263;48.172;11.484;2022-07-24T14:06:09;29.80;48.20
43665;DHT22;29263;48.172;11.484;2022-07-24T14:08:35;29.60;46.50
43665;DHT22;29263;48.172;11.484;2022-07-24T14:11:01;29.60;46.00
43665;DHT22;29263;48.172;11.484;2022-07-24T14:13:27;29.60;47.10
43665;DHT22;29263;48.172;11.484;2022-07-24T14:15:53;29.60;47.20
43665;DHT22;29263;48.172;11.484;2022-07-24T14:18:20;29.80;47.90
43665;DHT22;29263;48.172;11.484;2022-07-24T14:20:45;29.90;46.20
43665;DHT22;29263;48.172;11.484;2022-07-24T14:23:11;29.90;47.40
43665;DHT22;29263;48.172;11.484;2022-07-24T14:25:37;29.90;46.00
43665;DHT22;29263;48.172;11.484;2022-07-24T14:28:02;29.90;46.40
43665;DHT22;29263;48.172;11.484;2022-07-24T14:30:28;29.80;46.40
43665;DHT22;29263;48.172;11.484;2022-07-24T14:32:54;29.80;47.70
43665;DHT22;29263;48.172;11.484;2022-07-24T14:35:19;29.80;47.20
43665;DHT22;29263;48.172;11.484;2022-07-24T14:37:46;29.90;46.60
43665;DHT22;29263;48.172;11.484;2022-07-24T14:40:12;29.90;45.20
43665;DHT22;29263;48.172;11.484;2022-07-24T14:42:37;29.90;46.30
43665;DHT22;29263;48.172;11.484;2022-07-24T14:45:03;29.90;46.50
43665;DHT22;29263;48.172;11.484;2022-07-24T14:47:37;30.00;45.70
43665;DHT22;29263;48.172;11.484;2022-07-24T14:50:06;30.10;44.80
43665;DHT22;29263;48.172;11.484;2022-07-24T14:52:32;30.50;45.10
43665;DHT22;29263;48.172;11.484;2022-07-24T14:54:57;30.80;44.70
43665;DHT22;29263;48.172;11.484;2022-07-24T14:57:25;30.90;45.20
43665;DHT22;29263;48.172;11.484;2022-07-24T14:59:50;30.70;43.50
43665;DHT22;29263;48.172;11.484;2022-07-24T15:02:16;30.60;46.00
43665;DHT22;29263;48.172;11.484;2022-07-24T15:04:42;30.60;46.90
43665;DHT22;29263;48.172;11.484;2022-07-24T15:07:08;30.50;45.20
43665;DHT22;29263;48.172;11.484;2022-07-24T15:09:34;30.50;46.60
43665;DHT22;29263;48.172;11.484;2022-07-24T15:11:59;30.40;46.00
43665;DHT22;29263;48.172;11.484;2022-07-24T15:14:25;30.30;45.30
43665;DHT22;29263;48.172;11.484;2022-07-24T15:16:51;30.20;44.90
43665;DHT22;29263;48.172;11.484;2022-07-24T15:19:16;30.10;45.10
43665;DHT22;29263;48.172;11.484;2022-07-24T15:21:42;29.80;46.40
43665;DHT22;29263;48.172;11.484;2022-07-24T15:24:08;29.70;45.00
43665;DHT22;29263;48.172;11.484;2022-07-24T15:26:35;29.70;48.20
43665;DHT22;29263;48.172;11.484;2022-07-24T15:29:00;29.80;48.80
43665;DHT22;29263;48.172;11.484;2022-07-24T15:31:26;29.80;45.30
43665;DHT22;29263;48.172;11.484;2022-07-24T15:33:52;29.80;45.50
43665;DHT22;29263;48.172;11.484;2022-07-24T15:36:17;29.80;46.20
43665;DHT22;29263;48.172;11.484;2022-07-24T15:38:44;29.80;46.20
43665;DHT22;29263;48.172;11.484;2022-07-24T15:41:11;29.90;46.40
43665;DHT22;29263;48.172;11.484;2022-07-24T15:43:37;29.80;46.10
43665;DHT22;29263;48.172;11.484;2022-07-24T15:46:02;29.80;47.20
43665;DHT22;29263;48.172;11.484;2022-07-24T15:48:28;30.00;46.90
43665;DHT22;29263;48.172;11.484;2022-07-24T15:50:54;30.10;48.40
43665;DHT22;29263;48.172;11.484;2022-07-24T15:53:19;30.10;45.70
43665;DHT22;29263;48.172;11.484;2022-07-24T15:55:45;30.00;46.20
43665;DHT22;29263;48.172;11.484;2022-07-24T15:58:11;30.00;49.10
43665;DHT22;29263;48.172;11.484;2022-07-24T16:00:37;29.90;47.40
43665;DHT22;29263;48.172;11.484;2022-07-24T16:03:03;29.80;47.40
43665;DHT22;29263;48.172;11.484;2022-07-24T16:05:29;29.70;47.50
43665;DHT22;29263;48.172;11.484;2022-07-24T16:07:56;29.70;45.70
43665;DHT22;29263;48.172;11.484;2022-07-24T16:10:22;29.70;45.70
43665;DHT22;29263;48.172;11.484;2022-07-24T16:12:48;29.70;46.80
43665;DHT22;29263;48.172;11.484;2022-07-24T16:15:15;29.70;46.80
43665;DHT22;29263;48.172;11.484;2022-07-24T16:17:42;29.70;47.00
43665;DHT22;29263;48.172;11.484;2022-07-24T16:20:09;29.60;47.90
43665;DHT22;29263;48.172;11.484;2022-07-24T16:22:35;29.60;46.20
43665;DHT22;29263;48.172;11.484;2022-07-24T16:25:02;29.60;49.50
43665;DHT22;29263;48.172;11.484;2022-07-24T16:27:29;29.50;47.90
43665;DHT22;29263;48.172;11.484;2022-07-24T16:29:54;29.50;48.40
43665;DHT22;29263;48.172;11.484;2022-07-24T16:32:40;29.50;48.70
43665;DHT22;29263;48.172;11.484;2022-07-24T16:35:06;29.60;46.40
43665;DHT22;29263;48.172;11.484;2022-07-24T16:37:32;29.70;47.00
43665;DHT22;29263;48.172;11.484;2022-07-24T16:40:01;29.70;46.40
43665;DHT22;29263;48.172;11.484;2022-07-24T16:42:27;29.70;45.70
43665;DHT22;29263;48.172;11.484;2022-07-24T16:44:53;29.80;46.60
43665;DHT22;29263;48.172;11.484;2022-07-24T16:47:18;29.70;46.70
43665;DHT22;29263;48.172;11.484;2022-07-24T16:49:44;29.70;46.40
43665;DHT22;29263;48.172;11.484;2022-07-24T16:52:10;29.70;47.80
43665;DHT22;29263;48.172;11.484;2022-07-24T16:54:38;29.80;47.10
43665;DHT22;29263;48.172;11.484;2022-07-24T16:57:04;30.00;46.50
43665;DHT22;29263;48.172;11.484;2022-07-24T16:59:29;30.30;46.30
43665;DHT22;29263;48.172;11.484;2022-07-24T17:01:55;30.40;46.30
43665;DHT22;29263;48.172;11.484;2022-07-24T17:04:21;30.10;46.00
43665;DHT22;29263;48.172;11.484;2022-07-24T17:06:47;30.00;46.20
43665;DHT22;29263;48.172;11.484;2022-07-24T17:09:13;29.70;47.00
43665;DHT22;29263;48.172;11.484;2022-07-24T17:11:39;29.60;48.20
43665;DHT22;29263;48.172;11.484;2022-07-24T17:14:05;29.50;47.20
43665;DHT22;29263;48.172;11.484;2022-07-24T17:16:30;29.40;48.30
43665;DHT22;29263;48.172;11.484;2022-07-24T17:18:56;29.40;48.00
43665;DHT22;29263;48.172;11.484;2022-07-24T17:21:22;29.30;48.80
43665;DHT22;29263;48.172;11.484;2022-07-24T17:23:48;29.10;49.30
43665;DHT22;29263;48.172;11.484;2022-07-24T17:26:14;29.00;51.10
43665;DHT22;29263;48.172;11.484;2022-07-24T17:28:40;28.90;49.80
43665;DHT22;29263;48.172;11.484;2022-07-24T17:31:09;28.70;50.30
43665;DHT22;29263;48.172;11.484;2022-07-24T17:33:36;28.70;49.60
43665;DHT22;29263;48.172;11.484;2022-07-24T17:36:02;28.60;50.60
43665;DHT22;29263;48.172;11.484;2022-07-24T17:38:30;28.50;50.50
43665;DHT22;29263;48.172;11.484;2022-07-24T17:40:56;28.40;50.10
43665;DHT22;29263;48.172;11.484;2022-07-24T17:43:22;28.40;50.40
43665;DHT22;29263;48.172;11.484;2022-07-24T17:45:47;28.30;50.60
43665;DHT22;29263;48.172;11.484;2022-07-24T17:48:13;28.20;53.30
43665;DHT22;29263;48.172;11.484;2022-07-24T17:50:39;28.00;52.10
43665;DHT22;29263;48.172;11.484;2022-07-24T17:53:04;27.90;52.70
43665;DHT22;29263;48.172;11.484;2022-07-24T17:55:30;27.90;53.10
43665;DHT22;29263;48.172;11.484;2022-07-24T17:57:56;27.80;53.60
43665;DHT22;29263;48.172;11.484;2022-07-24T18:00:21;27.80;52.70
43665;DHT22;29263;48.172;11.484;2022-07-24T18:02:47;27.60;55.90
43665;DHT22;29263;48.172;11.484;2022-07-24T18:05:13;27.50;55.20
43665;DHT22;29263;48.172;11.484;2022-07-24T18:07:40;27.40;56.70
43665;DHT22;29263;48.172;11.484;2022-07-24T18:10:07;27.30;55.70
43665;DHT22;29263;48.172;11.484;2022-07-24T18:12:35;27.20;55.30
43665;DHT22;29263;48.172;11.484;2022-07-24T18:15:01;27.20;54.50
43665;DHT22;29263;48.172;11.484;2022-07-24T18:17:26;27.20;53.20
43665;DHT22;29263;48.172;11.484;2022-07-24T18:19:52;27.20;55.30
43665;DHT22;29263;48.172;11.484;2022-07-24T18:22:17;27.10;56.70
43665;DHT22;29263;48.172;11.484;2022-07-24T18:24:43;27.00;58.10
43665;DHT22;29263;48.172;11.484;2022-07-24T18:27:09;26.80;57.10
43665;DHT22;29263;48.172;11.484;2022-07-24T18:29:35;26.70;58.50
43665;DHT22;29263;48.172;11.484;2022-07-24T18:32:00;26.60;57.90
43665;DHT22;29263;48.172;11.484;2022-07-24T18:34:26;26.60;58.10
43665;DHT22;29263;48.172;11.484;2022-07-24T18:36:51;26.50;58.90
43665;DHT22;29263;48.172;11.484;2022-07-24T18:39:17;26.30;59.50
43665;DHT22;29263;48.172;11.484;2022-07-24T18:41:43;26.20;58.20
43665;DHT22;29263;48.172;11.484;2022-07-24T18:44:09;26.20;58.70
43665;DHT22;29263;48.172;11.484;2022-07-24T18:46:34;26.10;60.80